createdAt,value
2019-06-20T00:00:16.837Z,4.97
2019-06-20T00:03:04.255Z,5.92
2019-06-20T00:05:51.621Z,6.28
2019-06-20T00:08:39.764Z,5.55
2019-06-20T00:11:27.087Z,6.25
2019-06-20T00:14:14.247Z,5.90
2019-06-20T00:17:01.743Z,8.60
2019-06-20T00:19:49.154Z,6.75
2019-06-20T00:22:36.410Z,3.95
2019-06-20T00:25:23.049Z,4.40
2019-06-20T00:28:09.988Z,4.60
2019-06-20T00:30:59.339Z,4.53
2019-06-20T00:33:46.371Z,5.10
2019-06-20T00:36:33.166Z,11.33
2019-06-20T00:39:20.719Z,6.12
2019-06-20T00:42:07.815Z,5.10
2019-06-20T00:44:54.844Z,5.83
2019-06-20T00:47:42.427Z,8.10
2019-06-20T00:50:29.473Z,7.37
2019-06-20T00:53:16.548Z,6.37
2019-06-20T00:56:05.577Z,9.73
2019-06-20T00:58:52.827Z,9.65
2019-06-20T01:01:39.658Z,9.73
2019-06-20T01:04:26.442Z,6.35
2019-06-20T01:07:13.763Z,4.70
2019-06-20T01:10:00.794Z,6.53
2019-06-20T01:12:47.870Z,6.05
2019-06-20T01:15:34.968Z,4.97
2019-06-20T01:18:22.061Z,5.92
2019-06-20T01:21:09.345Z,6.97
2019-06-20T01:23:56.650Z,10.53
2019-06-20T01:26:43.839Z,5.62
2019-06-20T01:29:30.967Z,6.10
2019-06-20T01:32:17.761Z,9.20
2019-06-20T01:35:09.291Z,6.28
2019-06-20T01:37:56.525Z,7.08
2019-06-20T01:40:43.880Z,7.03
2019-06-20T01:43:30.999Z,5.65
2019-06-20T01:46:18.162Z,6.42
2019-06-20T01:49:05.860Z,6.92
2019-06-20T01:51:52.935Z,7.10
2019-06-20T01:54:40.218Z,5.17
2019-06-20T01:57:27.745Z,6.45
2019-06-20T02:00:17.872Z,8.95
2019-06-20T02:03:10.975Z,6.37
2019-06-20T02:05:58.264Z,11.45
2019-06-20T02:08:45.087Z,6.00
2019-06-20T02:11:32.383Z,8.95
2019-06-20T02:14:19.428Z,6.83
2019-06-20T02:17:06.540Z,5.35
2019-06-20T02:19:53.745Z,8.00
2019-06-20T02:22:40.794Z,6.65
2019-06-20T02:25:28.031Z,7.45
2019-06-20T02:28:15.363Z,9.78
2019-06-20T02:31:02.723Z,6.97
2019-06-20T02:33:51.898Z,9.55
2019-06-20T02:36:39.033Z,6.60
2019-06-20T02:39:26.102Z,7.42
2019-06-20T02:42:13.446Z,8.33
2019-06-20T02:45:00.871Z,9.30
2019-06-20T02:47:47.702Z,8.93
2019-06-20T02:50:34.936Z,7.08
2019-06-20T02:53:21.802Z,4.90
2019-06-20T02:56:08.636Z,5.60
2019-06-20T02:58:56.022Z,6.60
2019-06-20T03:01:43.131Z,6.47
2019-06-20T03:04:30.282Z,4.70
2019-06-20T03:07:17.182Z,8.85
2019-06-20T03:10:07.774Z,8.40
2019-06-20T03:12:54.575Z,6.42
2019-06-20T03:15:42.541Z,9.20
2019-06-20T03:18:29.847Z,7.08
2019-06-20T03:21:17.131Z,4.28
2019-06-20T03:24:04.625Z,7.78
2019-06-20T03:26:51.546Z,8.30
2019-06-20T03:29:39.005Z,7.87
2019-06-20T03:32:26.192Z,9.18
2019-06-20T03:35:13.593Z,7.65
2019-06-20T03:38:00.491Z,7.87
2019-06-20T03:40:47.532Z,6.05
2019-06-20T03:43:34.990Z,9.68
2019-06-20T03:46:22.183Z,11.50
2019-06-20T03:49:09.247Z,6.75
2019-06-20T03:51:59.370Z,6.03
2019-06-20T03:54:46.691Z,5.60
2019-06-20T03:57:33.806Z,10.30
2019-06-20T04:00:23.324Z,7.15
2019-06-20T04:03:10.474Z,5.55
2019-06-20T04:05:57.318Z,7.85
2019-06-20T04:08:44.846Z,5.65
2019-06-20T04:11:31.902Z,7.45
2019-06-20T04:14:18.974Z,7.33
2019-06-20T04:17:06.441Z,5.75
2019-06-20T04:19:53.747Z,7.33
2019-06-20T04:22:40.797Z,7.65
2019-06-20T04:25:30.495Z,10.80
2019-06-20T04:28:17.882Z,6.55
2019-06-20T04:31:05.438Z,6.40
2019-06-20T04:36:38.751Z,8.48
2019-06-20T04:39:26.175Z,6.40
2019-06-20T04:42:12.938Z,14.85
2019-06-20T04:45:01.629Z,10.08
2019-06-20T04:47:48.737Z,8.08
2019-06-20T04:50:37.399Z,8.63
2019-06-20T04:53:24.587Z,7.45
2019-06-20T04:56:11.894Z,10.63
2019-06-20T04:58:59.089Z,8.38
2019-06-20T05:01:46.178Z,7.10
2019-06-20T05:04:34.759Z,9.85
2019-06-20T05:07:21.933Z,8.93
2019-06-20T05:10:08.966Z,7.90
2019-06-20T05:12:56.244Z,11.03
2019-06-20T05:15:52.447Z,12.80
2019-06-20T05:18:32.427Z,6.80
2019-06-20T05:21:22.362Z,11.35
2019-06-20T05:24:08.657Z,10.72
2019-06-20T05:26:55.727Z,11.80
2019-06-20T05:29:45.756Z,8.68
2019-06-20T05:32:33.018Z,12.25
2019-06-20T05:35:20.364Z,10.10
2019-06-20T05:38:14.930Z,10.10
2019-06-20T05:41:01.894Z,13.32
2019-06-20T05:43:49.268Z,7.30
2019-06-20T05:46:36.109Z,6.95
2019-06-20T05:49:23.211Z,9.50
2019-06-20T05:52:10.175Z,8.18
2019-06-20T05:54:57.755Z,7.20
2019-06-20T05:57:44.665Z,8.43
2019-06-20T06:00:31.740Z,6.65
2019-06-20T06:03:21.838Z,5.28
2019-06-20T06:06:09.005Z,7.08
2019-06-20T06:08:56.179Z,7.72
2019-06-20T06:11:43.389Z,8.28
2019-06-20T06:14:31.528Z,9.35
2019-06-20T06:17:18.678Z,8.08
2019-06-20T06:20:08.679Z,9.78
2019-06-20T06:22:56.048Z,7.10
2019-06-20T06:25:42.910Z,9.08
2019-06-20T06:28:43.498Z,7.12
2019-06-20T06:31:30.606Z,6.58
2019-06-20T06:34:17.806Z,11.75
2019-06-20T06:37:05.087Z,7.40
2019-06-20T06:39:53.141Z,7.22
2019-06-20T06:42:39.783Z,8.60
2019-06-20T06:45:27.178Z,8.08
2019-06-20T06:48:13.974Z,7.50
2019-06-20T06:51:00.984Z,5.92
2019-06-20T06:53:47.913Z,8.38
2019-06-20T06:56:35.098Z,8.25
2019-06-20T06:59:22.301Z,7.72
2019-06-20T07:02:09.050Z,7.20
2019-06-20T07:07:41.852Z,5.12
2019-06-20T07:10:29.613Z,6.33
2019-06-20T07:13:16.951Z,4.67
2019-06-20T07:16:04.669Z,4.62
2019-06-20T07:18:52.822Z,3.85
2019-06-20T07:21:39.871Z,5.37
2019-06-20T07:24:26.731Z,4.37
2019-06-20T07:27:13.855Z,4.47
2019-06-20T07:30:01.140Z,4.08
2019-06-20T07:32:47.983Z,6.85
2019-06-20T07:38:20.907Z,5.85
2019-06-20T07:41:07.735Z,4.47
2019-06-20T07:43:54.614Z,7.22
2019-06-20T07:46:41.693Z,5.35
2019-06-20T07:49:28.731Z,3.95
2019-06-20T07:52:15.636Z,4.70
2019-06-20T07:55:03.281Z,3.98
2019-06-20T07:57:50.590Z,6.22
2019-06-20T08:00:37.545Z,4.08
2019-06-20T08:03:24.700Z,5.00
2019-06-20T08:06:11.768Z,3.50
2019-06-20T08:08:58.447Z,4.17
2019-06-20T08:11:45.590Z,3.25
2019-06-20T08:14:32.511Z,8.53
2019-06-20T08:17:34.369Z,5.28
2019-06-20T08:20:08.840Z,4.30
2019-06-20T08:22:55.706Z,4.30
2019-06-20T08:25:42.373Z,3.98
2019-06-20T08:28:29.334Z,5.35
2019-06-20T08:31:16.342Z,4.17
2019-06-20T08:34:04.422Z,3.95
2019-06-20T08:36:51.846Z,7.28
2019-06-20T08:39:39.271Z,6.67
2019-06-20T08:42:26.414Z,6.20
2019-06-20T08:45:14.439Z,4.65
2019-06-20T08:48:07.851Z,4.78
2019-06-20T08:50:56.832Z,4.95
2019-06-20T08:54:01.078Z,4.30
2019-06-20T08:56:48.113Z,3.70
2019-06-20T08:59:58.883Z,5.62
2019-06-20T09:02:45.784Z,3.70
2019-06-20T09:05:32.923Z,3.35
2019-06-20T09:08:19.762Z,4.20
2019-06-20T09:11:11.328Z,6.45
2019-06-20T09:13:59.234Z,3.72
2019-06-20T09:16:47.511Z,4.10
2019-06-20T09:19:34.374Z,4.78
2019-06-20T09:22:20.959Z,3.42
2019-06-20T09:25:10.601Z,3.47
2019-06-20T09:27:58.283Z,4.00
2019-06-20T09:30:57.131Z,5.25
2019-06-20T09:33:44.647Z,2.52
2019-06-20T09:36:31.693Z,4.65
2019-06-20T09:39:18.339Z,3.30
2019-06-20T09:42:15.210Z,4.53
2019-06-20T09:45:02.957Z,3.05
2019-06-20T09:47:50.969Z,3.58
2019-06-20T09:50:38.699Z,2.12
2019-06-20T09:53:25.599Z,4.47
2019-06-20T09:56:12.535Z,3.80
2019-06-20T09:58:59.293Z,2.60
2019-06-20T10:01:47.614Z,3.52
2019-06-20T10:04:34.633Z,6.03
2019-06-20T10:07:21.579Z,3.60
2019-06-20T10:10:10.891Z,2.42
2019-06-20T10:12:58.420Z,5.15
2019-06-20T10:15:46.675Z,3.58
2019-06-20T10:18:34.025Z,2.67
2019-06-20T10:21:21.309Z,5.78
2019-06-20T10:24:08.451Z,4.05
2019-06-20T10:26:55.547Z,3.75
2019-06-20T10:29:42.598Z,3.87
2019-06-20T10:32:29.630Z,3.35
2019-06-20T10:35:17.088Z,5.22
2019-06-20T10:38:03.837Z,3.95
2019-06-20T10:40:50.419Z,4.40
2019-06-20T10:43:37.490Z,3.50
2019-06-20T10:46:24.428Z,3.00
2019-06-20T10:49:11.537Z,4.00
2019-06-20T10:51:58.163Z,5.37
2019-06-20T10:54:45.342Z,4.20
2019-06-20T10:57:32.284Z,3.50
2019-06-20T11:00:30.283Z,3.77
2019-06-20T11:03:08.032Z,4.55
2019-06-20T11:05:55.480Z,2.83
2019-06-20T11:08:43.278Z,7.08
2019-06-20T11:11:31.927Z,4.03
2019-06-20T11:14:18.563Z,3.95
2019-06-20T11:17:05.925Z,2.98
2019-06-20T11:20:03.111Z,2.33
2019-06-20T11:22:50.231Z,2.22
2019-06-20T11:25:38.342Z,3.62
2019-06-20T11:28:26.214Z,4.50
2019-06-20T11:31:13.101Z,6.65
2019-06-20T11:34:01.792Z,4.00
2019-06-20T11:36:48.810Z,3.00
2019-06-20T11:39:37.310Z,4.65
2019-06-20T11:42:24.430Z,3.77
2019-06-20T11:45:13.302Z,4.40
2019-06-20T11:48:00.326Z,7.20
2019-06-20T11:50:47.249Z,8.08
2019-06-20T11:53:40.656Z,6.03
2019-06-20T11:56:29.518Z,2.70
2019-06-20T11:59:17.070Z,2.35
2019-06-20T12:02:03.952Z,8.63
2019-06-20T12:04:51.527Z,7.78
2019-06-20T12:07:41.090Z,11.08
2019-06-20T12:10:27.279Z,42.48
2019-06-20T12:13:14.471Z,18.15
2019-06-20T12:16:01.751Z,19.60
2019-06-20T12:18:49.478Z,19.02
2019-06-20T12:21:36.147Z,13.25
2019-06-20T12:27:09.193Z,17.65
2019-06-20T12:29:56.358Z,18.25
2019-06-20T12:32:44.689Z,11.57
2019-06-20T12:35:31.547Z,10.35
2019-06-20T12:38:18.458Z,9.45
2019-06-20T12:43:50.912Z,7.03
2019-06-20T12:46:39.344Z,10.08
2019-06-20T12:49:26.116Z,9.35
2019-06-20T12:52:13.263Z,7.05
2019-06-20T12:55:00.646Z,4.70
2019-06-20T12:57:48.541Z,4.80
2019-06-20T13:00:37.648Z,8.38
2019-06-20T13:03:24.510Z,4.15
2019-06-20T13:06:11.406Z,6.67
2019-06-20T13:08:58.665Z,8.43
2019-06-20T13:11:45.256Z,4.40
2019-06-20T13:14:32.507Z,6.05
2019-06-20T13:17:19.623Z,7.87
2019-06-20T13:20:07.241Z,2.70
2019-06-20T13:22:54.679Z,4.92
2019-06-20T13:25:42.513Z,4.95
2019-06-20T13:28:29.988Z,4.92
2019-06-20T13:31:17.063Z,6.30
2019-06-20T13:34:03.894Z,5.25
2019-06-20T13:36:51.092Z,6.35
2019-06-20T13:39:38.468Z,3.30
2019-06-20T13:42:26.786Z,4.28
2019-06-20T13:45:22.454Z,4.55
2019-06-20T13:48:09.796Z,6.08
2019-06-20T13:50:57.036Z,3.85
2019-06-20T13:53:44.281Z,4.47
2019-06-20T13:56:31.291Z,3.58
2019-06-20T13:59:18.225Z,3.25
2019-06-20T14:02:07.059Z,4.35
2019-06-20T14:04:53.765Z,4.00
2019-06-20T14:07:46.651Z,4.55
2019-06-20T14:10:29.264Z,3.62
2019-06-20T14:13:19.550Z,4.92
2019-06-20T14:16:05.203Z,3.42
2019-06-20T14:18:52.188Z,2.80
2019-06-20T14:21:39.641Z,4.12
2019-06-20T14:24:26.502Z,6.17
2019-06-20T14:27:13.681Z,3.00
2019-06-20T14:30:00.777Z,2.12
2019-06-20T14:32:49.451Z,3.00
2019-06-20T14:35:36.617Z,4.17
2019-06-20T14:38:25.600Z,3.12
2019-06-20T14:41:12.340Z,2.60
2019-06-20T14:43:59.601Z,2.87
2019-06-20T14:46:46.536Z,2.52
2019-06-20T14:49:33.411Z,1.67
2019-06-20T14:52:20.246Z,1.52
2019-06-20T14:55:07.912Z,1.77
2019-06-20T14:57:54.999Z,1.95
2019-06-20T15:00:44.750Z,5.42
2019-06-20T15:03:31.875Z,8.78
2019-06-20T15:06:19.127Z,4.28
2019-06-20T15:09:07.467Z,5.17
2019-06-20T15:11:55.081Z,4.45
2019-06-20T15:14:42.459Z,6.42
2019-06-20T15:17:29.947Z,7.75
2019-06-20T15:20:18.057Z,3.83
2019-06-20T15:23:05.069Z,5.50
2019-06-20T15:25:52.268Z,6.08
2019-06-20T15:28:39.733Z,2.17
2019-06-20T15:31:26.877Z,4.92
2019-06-20T15:36:59.581Z,4.35
2019-06-20T15:39:48.097Z,2.62
2019-06-20T15:42:35.831Z,3.15
2019-06-20T15:45:22.739Z,2.80
2019-06-20T15:48:10.017Z,1.95
2019-06-20T15:50:56.926Z,1.22
2019-06-20T15:53:43.930Z,3.62
2019-06-20T15:56:32.157Z,3.42
2019-06-20T15:59:18.788Z,2.08
2019-06-20T16:02:06.679Z,5.62
2019-06-20T16:04:53.984Z,1.35
2019-06-20T16:07:40.971Z,2.50
2019-06-20T16:10:28.242Z,2.25
2019-06-20T16:13:15.509Z,3.02
2019-06-20T16:16:02.682Z,2.02
2019-06-20T16:18:49.912Z,5.00
2019-06-20T16:21:36.927Z,1.95
2019-06-20T16:24:24.097Z,1.95
2019-06-20T16:27:11.140Z,3.80
2019-06-20T16:29:59.103Z,4.15
2019-06-20T16:32:46.034Z,1.55
2019-06-20T16:35:33.217Z,2.75
2019-06-20T16:38:20.297Z,1.82
2019-06-20T16:41:06.965Z,4.62
2019-06-20T16:43:54.325Z,3.27
2019-06-20T16:46:41.287Z,4.87
2019-06-20T16:49:27.898Z,2.62
2019-06-20T16:52:14.980Z,4.45
2019-06-20T16:55:02.246Z,3.37
2019-06-20T16:57:49.512Z,3.25
2019-06-20T17:00:36.568Z,2.98
2019-06-20T17:03:40.507Z,2.95
2019-06-20T17:06:12.254Z,3.20
2019-06-20T17:08:59.251Z,2.62
2019-06-20T17:11:46.203Z,3.00
2019-06-20T17:14:33.389Z,2.10
2019-06-20T17:17:20.368Z,4.30
2019-06-20T17:20:08.078Z,1.90
2019-06-20T17:22:55.162Z,2.12
2019-06-20T17:25:42.462Z,3.00
2019-06-20T17:28:29.582Z,1.70
2019-06-20T17:31:16.504Z,1.80
2019-06-20T17:34:03.737Z,3.67
2019-06-20T17:36:50.563Z,2.95
2019-06-20T17:39:37.663Z,2.47
2019-06-20T17:42:24.674Z,3.52
2019-06-20T17:45:12.588Z,3.37
2019-06-20T17:47:59.781Z,3.40
2019-06-20T17:50:46.509Z,2.17
2019-06-20T17:53:33.583Z,1.92
2019-06-20T17:56:20.687Z,1.82
2019-06-20T17:59:07.699Z,1.10
2019-06-20T18:01:54.958Z,2.90
2019-06-20T18:04:41.679Z,3.80
2019-06-20T18:07:28.621Z,2.05
2019-06-20T18:10:16.554Z,1.50
2019-06-20T18:13:03.432Z,2.52
2019-06-20T18:15:51.023Z,1.62
2019-06-20T18:18:38.075Z,2.42
2019-06-20T18:21:25.190Z,1.20
2019-06-20T18:24:12.020Z,1.92
2019-06-20T18:26:59.053Z,1.62
2019-06-20T18:29:46.198Z,2.35
2019-06-20T18:32:33.299Z,4.20
2019-06-20T18:35:19.996Z,1.47
2019-06-20T18:38:07.124Z,3.77
2019-06-20T18:40:54.247Z,3.27
2019-06-20T18:43:41.151Z,2.92
2019-06-20T18:46:28.150Z,3.58
2019-06-20T18:49:15.201Z,2.80
2019-06-20T18:52:02.137Z,1.20
2019-06-20T18:54:49.239Z,1.50
2019-06-20T18:57:36.078Z,3.80
2019-06-20T19:00:34.079Z,3.52
2019-06-20T19:03:12.944Z,2.85
2019-06-20T19:06:00.070Z,3.20
2019-06-20T19:08:47.107Z,4.92
2019-06-20T19:11:34.719Z,4.10
2019-06-20T19:14:21.977Z,1.75
2019-06-20T19:17:09.313Z,2.87
2019-06-20T19:19:56.370Z,4.67
2019-06-20T19:22:43.627Z,2.35
2019-06-20T19:25:30.910Z,2.30
2019-06-20T19:28:17.993Z,8.28
2019-06-20T19:31:05.326Z,4.28
2019-06-20T19:33:52.550Z,2.70
2019-06-20T19:36:39.816Z,2.10
2019-06-20T19:39:28.727Z,4.12
2019-06-20T19:42:15.824Z,3.60
2019-06-20T19:45:10.523Z,3.12
2019-06-20T19:47:57.622Z,3.35
2019-06-20T19:50:45.889Z,3.25
2019-06-20T19:53:32.591Z,4.50
2019-06-20T19:56:19.783Z,2.70
2019-06-20T19:59:06.593Z,3.15
2019-06-20T20:01:53.749Z,3.52
2019-06-20T20:04:40.859Z,3.22
2019-06-20T20:07:28.148Z,2.65
2019-06-20T20:10:17.771Z,2.47
2019-06-20T20:13:04.775Z,2.50
2019-06-20T20:15:51.907Z,5.25
2019-06-20T20:18:39.290Z,3.20
2019-06-20T20:21:26.685Z,4.37
2019-06-20T20:24:14.236Z,3.00
2019-06-20T20:27:00.975Z,2.90
2019-06-20T20:29:47.721Z,2.95
2019-06-20T20:32:34.611Z,2.80
2019-06-20T20:35:35.001Z,3.87
2019-06-20T20:38:09.985Z,6.03
2019-06-20T20:40:57.234Z,5.83
2019-06-20T20:43:44.396Z,4.83
2019-06-20T20:46:31.427Z,5.33
2019-06-20T20:49:18.526Z,3.90
2019-06-20T20:52:06.006Z,4.30
2019-06-20T20:54:52.943Z,4.55
2019-06-20T20:57:40.278Z,5.95
2019-06-20T21:00:33.155Z,3.92
2019-06-20T21:03:20.202Z,5.62
2019-06-20T21:06:07.577Z,4.95
2019-06-20T21:08:54.337Z,4.10
2019-06-20T21:11:41.083Z,3.20
2019-06-20T21:14:28.483Z,3.77
2019-06-20T21:17:15.835Z,4.65
2019-06-20T21:22:49.066Z,6.25
2019-06-20T21:25:36.459Z,4.90
2019-06-20T21:28:23.546Z,3.80
2019-06-20T21:31:11.590Z,3.83
2019-06-20T21:33:58.962Z,9.35
2019-06-20T21:36:46.335Z,5.12
2019-06-20T21:39:33.420Z,6.22
2019-06-20T21:42:20.467Z,5.90
2019-06-20T21:47:53.758Z,4.45
2019-06-20T21:50:41.095Z,7.00
2019-06-20T21:53:28.088Z,3.70
2019-06-20T21:56:15.226Z,2.83
2019-06-20T21:59:02.372Z,7.90
2019-06-20T22:01:49.542Z,3.67
2019-06-20T22:04:36.640Z,5.33
2019-06-20T22:07:24.152Z,7.47
2019-06-20T22:10:11.729Z,9.58
2019-06-20T22:12:59.091Z,4.10
2019-06-20T22:15:45.918Z,10.23
2019-06-20T22:18:33.120Z,6.15
2019-06-20T22:21:20.188Z,5.03
2019-06-20T22:24:07.285Z,6.37
2019-06-20T22:26:54.454Z,4.65
2019-06-20T22:29:41.476Z,5.05
2019-06-20T22:32:28.834Z,4.08
2019-06-20T22:35:15.940Z,10.15
2019-06-20T22:38:03.091Z,8.40
2019-06-20T22:40:51.229Z,7.03
2019-06-20T22:43:38.259Z,6.03
2019-06-20T22:46:25.470Z,4.05
2019-06-20T22:49:12.226Z,4.80
2019-06-20T22:51:59.482Z,5.75
2019-06-20T22:54:46.353Z,5.12
2019-06-20T22:57:33.651Z,5.67
2019-06-20T23:00:21.490Z,6.15
2019-06-20T23:03:09.030Z,6.90
2019-06-20T23:05:56.925Z,7.72
2019-06-20T23:08:44.281Z,9.30
2019-06-20T23:11:31.277Z,2.95
2019-06-20T23:14:18.567Z,5.62
2019-06-20T23:19:51.795Z,7.60
2019-06-20T23:22:39.362Z,4.75
2019-06-20T23:25:26.324Z,6.53
2019-06-20T23:28:13.394Z,7.70
2019-06-20T23:31:00.474Z,5.67
2019-06-20T23:33:47.618Z,13.83
2019-06-20T23:36:34.635Z,9.40
2019-06-20T23:39:21.730Z,9.30
2019-06-20T23:42:09.261Z,5.17
2019-06-20T23:47:42.009Z,6.92
2019-06-20T23:50:29.438Z,6.40
2019-06-20T23:56:09.721Z,8.40
2019-06-20T23:58:56.858Z,5.10
